createdAt,value
2022-08-01T00:03:40.903Z,96634.50
2022-08-01T00:08:44.736Z,96629.84
2022-08-01T00:13:57.400Z,96632.91
2022-08-01T00:19:00.835Z,96634.97
2022-08-01T00:24:04.455Z,96626.00
2022-08-01T00:29:10.161Z,96622.94
2022-08-01T00:34:31.965Z,96632.41
2022-08-01T00:39:35.588Z,96626.28
2022-08-01T00:44:39.856Z,96628.38
2022-08-01T00:49:43.291Z,96622.94
2022-08-01T00:54:47.475Z,96631.91
2022-08-01T00:59:51.393Z,96628.38
2022-08-01T01:04:55.921Z,96631.41
2022-08-01T01:10:05.076Z,96635.28
2022-08-01T01:15:27.849Z,96636.75
2022-08-01T01:20:41.594Z,96632.88
2022-08-01T01:26:15.757Z,96635.94
2022-08-01T01:31:22.580Z,96624.53
2022-08-01T01:36:28.451Z,96621.69
2022-08-01T01:41:33.079Z,96628.72
2022-08-01T01:46:37.688Z,96628.72
2022-08-01T01:51:54.198Z,96631.78
2022-08-01T01:57:09.504Z,96622.31
2022-08-01T02:02:15.766Z,96633.53
2022-08-01T02:07:23.553Z,96623.78
2022-08-01T02:12:28.240Z,96614.31
2022-08-01T02:17:32.592Z,96623.31
2022-08-01T02:22:43.387Z,96623.59
2022-08-01T02:27:59.035Z,96621.69
2022-08-01T02:33:25.961Z,96634.22
2022-08-01T02:38:33.652Z,96631.50
2022-08-01T02:43:47.083Z,96642.41
2022-08-01T02:48:59.917Z,96648.94
2022-08-01T02:54:06.529Z,96648.16
2022-08-01T02:59:14.526Z,96648.81
2022-08-01T03:04:20.296Z,96648.34
2022-08-01T03:09:26.342Z,96645.13
2022-08-01T03:14:32.386Z,96649.78
2022-08-01T03:19:37.444Z,96663.72
2022-08-01T03:24:43.929Z,96662.94
2022-08-01T03:29:49.554Z,96664.53
2022-08-01T03:34:53.263Z,96655.22
2022-08-01T03:40:03.435Z,96660.69
2022-08-01T03:45:13.282Z,96663.41
2022-08-01T03:50:20.284Z,96658.91
2022-08-01T03:55:24.638Z,96665.00
2022-08-01T04:00:29.276Z,96660.66
2022-08-01T04:05:32.723Z,96668.81
2022-08-01T04:10:37.720Z,96673.13
2022-08-01T04:15:41.179Z,96670.06
2022-08-01T04:20:44.647Z,96672.44
2022-08-01T04:25:51.159Z,96668.09
2022-08-01T04:31:01.667Z,96671.09
2022-08-01T04:36:08.198Z,96670.94
2022-08-01T04:41:14.019Z,96672.84
2022-08-01T04:46:17.563Z,96672.44
2022-08-01T04:51:32.630Z,96669.03
2022-08-01T04:56:36.121Z,96676.19
2022-08-01T05:01:40.018Z,96672.56
2022-08-01T05:06:44.704Z,96676.53
2022-08-01T05:11:48.321Z,96668.25
2022-08-01T05:16:51.825Z,96681.84
2022-08-01T05:21:55.168Z,96676.91
2022-08-01T05:27:04.198Z,96677.13
2022-08-01T05:32:08.087Z,96682.25
2022-08-01T05:37:11.688Z,96682.63
2022-08-01T05:42:15.000Z,96678.72
2022-08-01T05:47:18.733Z,96669.38
2022-08-01T05:52:22.088Z,96684.47
2022-08-01T05:57:26.076Z,96685.34
2022-08-01T06:02:29.777Z,96690.00
2022-08-01T06:07:33.746Z,96686.53
2022-08-01T06:12:42.086Z,96700.78
2022-08-01T06:17:45.939Z,96699.63
2022-08-01T06:22:52.568Z,96699.84
2022-08-01T06:27:56.701Z,96693.03
2022-08-01T06:33:00.478Z,96701.44
2022-08-01T06:38:04.499Z,96692.28
2022-08-01T06:43:08.722Z,96713.53
2022-08-01T06:48:12.496Z,96707.38
2022-08-01T06:53:15.966Z,96711.72
2022-08-01T06:58:19.296Z,96703.41
2022-08-01T07:03:24.533Z,96706.97
2022-08-01T07:08:28.720Z,96712.38
2022-08-01T07:13:43.993Z,96719.63
2022-08-01T07:18:49.441Z,96711.09
2022-08-01T07:23:52.977Z,96710.03
2022-08-01T07:28:59.348Z,96714.72
2022-08-01T07:34:03.534Z,96714.13
2022-08-01T07:39:07.087Z,96716.63
2022-08-01T07:44:10.600Z,96721.09
2022-08-01T07:49:13.965Z,96709.94
2022-08-01T07:54:17.572Z,96714.03
2022-08-01T07:59:23.255Z,96710.31
2022-08-01T08:04:29.772Z,96708.56
2022-08-01T08:09:37.447Z,96714.22
2022-08-01T08:14:41.770Z,96714.34
2022-08-01T08:19:45.326Z,96707.66
2022-08-01T08:24:48.878Z,96709.34
2022-08-01T08:29:52.341Z,96706.78
2022-08-01T08:34:55.871Z,96710.34
2022-08-01T08:39:59.652Z,96710.84
2022-08-01T08:45:03.903Z,96721.38
2022-08-01T08:50:08.521Z,96719.16
2022-08-01T08:55:13.670Z,96718.59
2022-08-01T09:00:17.658Z,96722.25
2022-08-01T09:05:25.042Z,96728.25
2022-08-01T09:10:48.357Z,96720.25
2022-08-01T09:15:58.509Z,96725.91
2022-08-01T09:21:14.914Z,96719.66
2022-08-01T09:26:31.442Z,96726.38
2022-08-01T09:31:47.502Z,96720.25
2022-08-01T09:36:57.780Z,96719.28
2022-08-01T09:42:04.032Z,96725.00
2022-08-01T09:47:08.198Z,96719.94
2022-08-01T09:52:25.898Z,96723.31
2022-08-01T09:57:32.638Z,96729.66
2022-08-01T10:02:38.482Z,96722.84
2022-08-01T10:08:02.601Z,96716.00
2022-08-01T10:13:13.120Z,96710.53
2022-08-01T10:18:25.868Z,96719.56
2022-08-01T10:23:40.469Z,96717.47
2022-08-01T10:28:49.191Z,96707.66
2022-08-01T10:33:53.770Z,96700.88
2022-08-01T10:38:59.583Z,96694.44
2022-08-01T10:44:04.431Z,96703.03
2022-08-01T10:49:15.191Z,96704.81
2022-08-01T10:54:18.660Z,96703.09
2022-08-01T10:59:50.971Z,96696.34
2022-08-01T11:05:02.134Z,96707.78
2022-08-01T11:10:51.187Z,96701.63
2022-08-01T11:16:28.300Z,96701.25
2022-08-01T11:21:59.150Z,96702.22
2022-08-01T11:27:23.541Z,96710.78
2022-08-01T11:32:28.864Z,96704.56
2022-08-01T11:37:32.248Z,96695.53
2022-08-01T11:42:36.719Z,96698.97
2022-08-01T11:47:51.352Z,96689.34
2022-08-01T11:53:06.404Z,96697.72
2022-08-01T11:58:22.279Z,96692.09
2022-08-01T12:03:34.519Z,96693.41
2022-08-01T12:08:43.100Z,96688.66
2022-08-01T12:13:46.818Z,96678.38
2022-08-01T12:18:50.361Z,96670.50
2022-08-01T12:24:04.569Z,96676.34
2022-08-01T12:29:08.565Z,96670.34
2022-08-01T12:34:28.374Z,96677.72
2022-08-01T12:39:34.002Z,96668.75
2022-08-01T12:44:39.186Z,96676.25
2022-08-01T12:49:44.661Z,96685.84
2022-08-01T12:55:09.616Z,96665.91
2022-08-01T13:00:21.035Z,96673.72
2022-08-01T13:05:26.298Z,96680.81
2022-08-01T13:10:31.738Z,96678.06
2022-08-01T13:15:41.867Z,96665.84
2022-08-01T13:20:45.641Z,96691.38
2022-08-01T13:25:56.902Z,96685.53
2022-08-01T13:31:01.278Z,96687.47
2022-08-01T13:36:05.389Z,96684.31
2022-08-01T13:41:09.460Z,96689.00
2022-08-01T13:46:13.139Z,96683.50
2022-08-01T13:51:22.713Z,96671.03
2022-08-01T13:56:27.253Z,96675.03
2022-08-01T14:01:34.207Z,96673.34
2022-08-01T14:06:38.175Z,96687.00
2022-08-01T14:11:45.844Z,96682.88
2022-08-01T14:16:49.550Z,96669.50
2022-08-01T14:21:53.861Z,96672.47
2022-08-01T14:26:58.323Z,96666.03
2022-08-01T14:32:02.348Z,96671.41
2022-08-01T14:37:06.128Z,96667.84
2022-08-01T14:42:11.979Z,96668.63
2022-08-01T14:47:22.074Z,96662.88
2022-08-01T14:52:25.992Z,96665.47
2022-08-01T14:57:30.580Z,96662.06
2022-08-01T15:02:34.152Z,96657.63
2022-08-01T15:07:41.762Z,96657.03
2022-08-01T15:12:55.959Z,96661.59
2022-08-01T15:18:00.835Z,96662.75
2022-08-01T15:23:04.346Z,96660.16
2022-08-01T15:28:07.775Z,96664.44
2022-08-01T15:33:11.046Z,96668.88
2022-08-01T15:38:14.481Z,96668.41
2022-08-01T15:43:17.650Z,96673.34
2022-08-01T15:48:21.035Z,96685.63
2022-08-01T15:53:24.627Z,96680.19
2022-08-01T15:58:28.255Z,96675.84
2022-08-01T16:03:31.734Z,96673.13
2022-08-01T16:08:36.955Z,96665.28
2022-08-01T16:13:40.415Z,96676.47
2022-08-01T16:18:44.285Z,96674.53
2022-08-01T16:23:47.814Z,96677.16
2022-08-01T16:28:51.862Z,96682.06
2022-08-01T16:33:58.220Z,96675.13
2022-08-01T16:39:05.681Z,96690.03
2022-08-01T16:44:10.874Z,96696.91
2022-08-01T16:49:17.084Z,96689.16
2022-08-01T16:54:24.647Z,96702.25
2022-08-01T16:59:30.057Z,96700.19
2022-08-01T17:04:41.374Z,96706.47
2022-08-01T17:09:44.907Z,96710.84
2022-08-01T17:14:49.405Z,96712.06
2022-08-01T17:19:52.998Z,96718.59
2022-08-01T17:24:56.713Z,96718.94
2022-08-01T17:30:00.149Z,96713.56
2022-08-01T17:35:04.232Z,96726.19
2022-08-01T17:40:37.489Z,96724.03
2022-08-01T17:45:32.129Z,96732.47
2022-08-01T17:50:45.378Z,96734.16
2022-08-01T17:55:54.484Z,96743.41
2022-08-01T18:01:01.104Z,96743.44
2022-08-01T18:06:04.531Z,96748.91
2022-08-01T18:11:09.174Z,96755.06
2022-08-01T18:16:13.597Z,96754.72
2022-08-01T18:21:17.525Z,96759.84
2022-08-01T18:26:21.984Z,96764.88
2022-08-01T18:31:25.580Z,96772.94
2022-08-01T18:36:32.312Z,96774.78
2022-08-01T18:41:38.700Z,96767.22
2022-08-01T18:46:42.363Z,96767.91
2022-08-01T18:51:46.290Z,96770.63
2022-08-01T18:56:56.644Z,96771.78
2022-08-01T19:02:00.796Z,96780.19
2022-08-01T19:07:05.605Z,96775.50
2022-08-01T19:12:09.477Z,96779.38
2022-08-01T19:17:13.192Z,96774.13
2022-08-01T19:22:17.114Z,96776.72
2022-08-01T19:27:24.087Z,96769.03
2022-08-01T19:32:30.524Z,96768.91
2022-08-01T19:37:34.589Z,96771.50
2022-08-01T19:42:41.916Z,96774.13
2022-08-01T19:47:51.851Z,96768.16
2022-08-01T19:53:03.479Z,96775.91
2022-08-01T19:58:26.399Z,96770.00
2022-08-01T20:03:34.116Z,96771.09
2022-08-01T20:08:38.035Z,96769.16
2022-08-01T20:13:41.730Z,96764.38
2022-08-01T20:18:45.311Z,96763.22
2022-08-01T20:23:51.250Z,96765.16
2022-08-01T20:28:56.819Z,96771.78
2022-08-01T20:34:01.120Z,96771.63
2022-08-01T20:39:04.618Z,96764.09
2022-08-01T20:44:09.710Z,96762.34
2022-08-01T20:49:13.789Z,96759.59
2022-08-01T20:54:17.231Z,96759.59
2022-08-01T20:59:39.618Z,96759.94
2022-08-01T21:05:03.731Z,96762.22
2022-08-01T21:10:09.528Z,96757.72
2022-08-01T21:15:37.866Z,96758.88
2022-08-01T21:21:11.493Z,96755.34
2022-08-01T21:26:21.093Z,96754.03
2022-08-01T21:31:25.703Z,96747.97
2022-08-01T21:36:45.635Z,96751.84
2022-08-01T21:41:56.713Z,96747.06
2022-08-01T21:47:11.868Z,96749.28
2022-08-01T21:52:17.715Z,96748.03
2022-08-01T21:57:43.222Z,96748.69
2022-08-01T22:03:08.018Z,96738.53
2022-08-01T22:08:13.797Z,96748.84
2022-08-01T22:13:17.420Z,96747.34
2022-08-01T22:18:20.933Z,96755.09
2022-08-01T22:23:24.562Z,96746.09
2022-08-01T22:28:28.975Z,96741.78
2022-08-01T22:33:35.746Z,96743.38
2022-08-01T22:38:39.089Z,96748.50
2022-08-01T22:44:08.491Z,96743.03
2022-08-01T22:49:32.108Z,96733.56
2022-08-01T22:54:43.082Z,96728.13
2022-08-01T22:59:57.561Z,96727.56
2022-08-01T23:05:06.820Z,96725.81
2022-08-01T23:10:10.349Z,96726.13
2022-08-01T23:15:14.072Z,96728.88
2022-08-01T23:20:18.620Z,96729.97
2022-08-01T23:25:23.715Z,96726.78
2022-08-01T23:30:30.820Z,96722.13
2022-08-01T23:35:35.492Z,96717.94
2022-08-01T23:40:43.145Z,96712.78
2022-08-01T23:46:03.230Z,96716.19
2022-08-01T23:51:09.402Z,96724.72
2022-08-01T23:56:19.163Z,96722.63
